Congresbury, United Kingdom
Current Conditions -  °F | °C
As of 4:20 AM on Wednesday 28 Jan 2015 (Local Time) from EGGD Reporting Station
Light Rain Light Rain  
Wind Chill: 37°   Ceiling: 300
Heat Index: 45°   Visibility: 4mi
Dew Point: 43°   Wind: 18mph
Humidity: 93%   Direction: 220°SW
Pressure: 29.85"   Gusts: NA
Location:  51.37°N, 2.81°W
Report Text: EGGD 280420Z 22016KT 6000 -RA OVC003 07/06 Q1011
Loading
Personal Weather Stations






























Interactive Weather Map New forecast layout! Learn more

10-Day Weather Forecast

Advertisements
Track Severe Weather on mobile